Time;durP1;ratioP1;P1;durP2;ratioP2;P2;SDS_P1;SDS_P2;PMS_P1;PMS_P2;Temp;Humidity;BMP_temperature;BMP_pressure;BME280_temperature;BME280_humidity;BME280_pressure;Samples;Min_cycle;Max_cycle;Signal;HPM_P1;HPM_P2
2022/07/13 00:00:38;;;;;;;1.73;0.20;;;18.40;67.80;;;;;;5032450;28;20046;-76
2022/07/13 00:03:06;;;;;;;1.25;0.10;;;18.30;67.70;;;;;;5014071;28;20064;-77
2022/07/13 00:05:33;;;;;;;2.83;0.20;;;18.30;67.70;;;;;;5016954;28;20393;-76
2022/07/13 00:08:00;;;;;;;2.47;0.65;;;18.20;67.60;;;;;;5033247;28;20053;-76
2022/07/13 00:10:27;;;;;;;0.70;0.10;;;18.10;67.70;;;;;;5015643;28;20068;-76
2022/07/13 00:12:54;;;;;;;1.10;0.10;;;18.10;68.10;;;;;;5016605;28;20056;-76
2022/07/13 00:15:22;;;;;;;0.38;0.10;;;18.00;68.40;;;;;;5009666;28;20052;-77
2022/07/13 00:17:49;;;;;;;0.25;0.13;;;18.00;68.10;;;;;;5015370;28;20049;-76
2022/07/13 00:20:16;;;;;;;1.08;0.20;;;18.00;68.70;;;;;;5014530;28;20048;-76
2022/07/13 00:22:43;;;;;;;0.82;0.10;;;18.00;68.70;;;;;;5013268;28;20461;-76
2022/07/13 00:25:10;;;;;;;2.08;0.20;;;17.90;68.70;;;;;;5019508;28;20513;-77
2022/07/13 00:27:37;;;;;;;0.57;0.10;;;17.90;69.00;;;;;;5011161;28;20054;-77
2022/07/13 00:30:05;;;;;;;1.20;0.20;;;17.90;68.80;;;;;;5018205;28;20108;-76
2022/07/13 00:32:32;;;;;;;1.52;0.10;;;17.90;69.40;;;;;;5015952;28;20033;-76
2022/07/13 00:34:59;;;;;;;2.17;0.30;;;17.80;69.10;;;;;;5017835;28;20053;-76
2022/07/13 00:37:26;;;;;;;0.63;0.10;;;17.80;69.50;;;;;;5001869;28;20060;-77
2022/07/13 00:39:53;;;;;;;0.77;0.30;;;17.80;69.30;;;;;;5000289;28;20060;-76
2022/07/13 00:42:20;;;;;;;1.65;0.57;;;17.80;68.90;;;;;;5017452;28;20155;-76
2022/07/13 00:44:47;;;;;;;2.92;0.20;;;17.80;69.10;;;;;;5010611;28;20120;-76
2022/07/13 00:47:16;;;;;;;0.80;0.32;;;17.80;70.40;;;;;;5016666;28;20049;-76
2022/07/13 00:49:43;;;;;;;5.53;0.30;;;17.70;70.60;;;;;;5031726;28;20060;-76
2022/07/13 00:52:10;;;;;;;0.55;0.10;;;17.70;70.50;;;;;;5031186;28;20045;-76
2022/07/13 00:54:41;;;;;;;0.82;0.10;;;17.70;70.30;;;;;;5014637;28;20219;-77
2022/07/13 00:57:09;;;;;;;1.02;0.20;;;17.70;70.10;;;;;;5001803;28;20052;-77
2022/07/13 00:59:36;;;;;;;0.75;0.20;;;17.70;70.20;;;;;;4996792;28;20104;-76
2022/07/13 01:02:03;;;;;;;0.85;0.10;;;17.60;70.20;;;;;;5034828;28;20105;-76
2022/07/13 01:04:31;;;;;;;3.72;0.30;;;17.70;70.40;;;;;;5018682;28;20420;-76
2022/07/13 01:06:58;;;;;;;2.05;0.25;;;17.60;70.90;;;;;;5020320;28;20045;-77
2022/07/13 01:09:26;;;;;;;0.52;0.20;;;17.50;70.10;;;;;;5001930;28;20053;-76
2022/07/13 01:11:53;;;;;;;0.55;0.15;;;17.60;70.60;;;;;;5019081;28;20634;-76
2022/07/13 01:14:20;;;;;;;0.98;0.20;;;17.60;70.20;;;;;;5011409;28;20046;-76
2022/07/13 01:16:48;;;;;;;0.30;0.10;;;17.60;70.10;;;;;;5013419;28;20045;-76
2022/07/13 01:19:16;;;;;;;0.38;0.10;;;17.50;70.00;;;;;;5002962;28;20546;-76
2022/07/13 01:21:45;;;;;;;0.28;0.10;;;17.50;70.00;;;;;;5024227;28;20047;-76
2022/07/13 01:24:12;;;;;;;0.95;0.10;;;17.50;71.20;;;;;;5019339;28;20041;-76
2022/07/13 01:26:40;;;;;;;0.85;0.10;;;17.50;71.40;;;;;;5033951;28;20396;-76
2022/07/13 01:29:07;;;;;;;0.93;0.20;;;17.50;72.40;;;;;;5028025;28;20120;-76
2022/07/13 01:31:40;;;;;;;0.95;0.10;;;17.40;72.70;;;;;;5032345;28;20077;-76
2022/07/13 01:34:07;;;;;;;;;;;17.40;72.80;;;;;;5020753;28;20042;-76
2022/07/13 01:36:35;;;;;;;0.38;0.10;;;17.40;72.10;;;;;;5016859;28;19925;-76
2022/07/13 01:39:06;;;;;;;1.10;0.30;;;17.40;71.80;;;;;;5016970;28;20079;-76
2022/07/13 01:41:33;;;;;;;1.20;0.28;;;17.40;71.20;;;;;;5012534;28;20041;-76
2022/07/13 01:44:01;;;;;;;0.45;0.10;;;17.40;71.20;;;;;;5017130;28;20057;-77
2022/07/13 01:46:29;;;;;;;0.68;0.10;;;17.40;71.80;;;;;;5033494;28;20041;-77
2022/07/13 01:48:58;;;;;;;0.75;0.10;;;17.30;71.70;;;;;;5017973;28;20133;-76
2022/07/13 01:51:25;;;;;;;1.13;0.30;;;17.30;72.10;;;;;;5018694;28;20049;-76
2022/07/13 01:53:52;;;;;;;0.65;0.13;;;17.30;71.90;;;;;;5012342;28;20038;-76
2022/07/13 01:56:20;;;;;;;0.28;0.10;;;17.20;71.60;;;;;;5018659;28;20045;-76
2022/07/13 01:58:48;;;;;;;1.75;0.20;;;17.30;71.90;;;;;;5005737;28;20124;-77
2022/07/13 02:01:15;;;;;;;0.45;0.10;;;17.30;72.30;;;;;;5000787;28;20046;-76
2022/07/13 02:03:44;;;;;;;0.52;0.30;;;17.20;72.50;;;;;;4999739;28;20042;-75
2022/07/13 02:06:11;;;;;;;1.75;0.10;;;17.20;72.30;;;;;;5019684;28;20037;-76
2022/07/13 02:08:38;;;;;;;0.30;0.17;;;17.20;72.80;;;;;;5017551;28;20049;-76
2022/07/13 02:11:22;;;;;;;0.68;0.10;;;17.20;73.20;;;;;;4997171;28;20053;-75
2022/07/13 02:13:50;;;;;;;0.43;0.20;;;17.10;72.40;;;;;;4991432;28;20042;-75
2022/07/13 02:16:17;;;;;;;0.82;0.30;;;17.10;71.80;;;;;;5016836;28;20030;-76
2022/07/13 02:18:45;;;;;;;1.20;0.10;;;17.10;73.60;;;;;;5010214;28;20100;-75
2022/07/13 02:21:12;;;;;;;1.00;0.20;;;17.20;73.80;;;;;;5027736;28;20043;-76
2022/07/13 02:23:41;;;;;;;0.60;0.10;;;17.10;73.60;;;;;;5015207;28;20076;-76
2022/07/13 02:26:08;;;;;;;0.40;0.10;;;17.10;72.80;;;;;;4998964;28;20057;-75
2022/07/13 02:28:38;;;;;;;2.33;0.20;;;17.00;72.70;;;;;;5016570;28;20119;-76
2022/07/13 02:31:05;;;;;;;0.98;0.10;;;17.00;72.80;;;;;;5016139;28;20087;-76
2022/07/13 02:33:35;;;;;;;4.38;0.43;;;17.00;72.80;;;;;;5003642;28;20055;-75
2022/07/13 02:36:02;;;;;;;0.40;0.10;;;16.90;73.00;;;;;;5013190;28;20431;-76
2022/07/13 02:38:29;;;;;;;1.27;0.10;;;16.90;73.40;;;;;;5002701;28;20062;-76
2022/07/13 02:40:56;;;;;;;2.05;0.20;;;16.90;73.80;;;;;;4993364;28;20056;-76
2022/07/13 02:43:24;;;;;;;1.00;0.20;;;16.90;73.80;;;;;;4996006;28;20123;-76
2022/07/13 02:45:51;;;;;;;2.65;0.20;;;16.90;74.10;;;;;;5016209;28;20720;-75
2022/07/13 02:48:19;;;;;;;1.40;0.30;;;16.90;73.70;;;;;;5029633;28;20056;-76
2022/07/13 02:50:46;;;;;;;0.47;0.20;;;16.80;73.40;;;;;;5018221;28;20045;-74
2022/07/13 02:53:13;;;;;;;2.45;0.10;;;16.90;73.50;;;;;;4999776;28;20404;-75
2022/07/13 02:55:40;;;;;;;3.35;0.63;;;16.70;73.60;;;;;;5017347;28;20037;-76
2022/07/13 02:58:07;;;;;;;0.40;0.20;;;16.70;73.80;;;;;;5017297;28;20042;-75
2022/07/13 03:00:34;;;;;;;1.52;0.40;;;16.80;74.00;;;;;;5003409;28;20091;-75
2022/07/13 03:03:01;;;;;;;2.95;0.47;;;16.70;73.80;;;;;;5011904;28;20501;-75
2022/07/13 03:05:28;;;;;;;3.40;0.40;;;16.70;74.20;;;;;;5017185;28;20041;-75
2022/07/13 03:07:55;;;;;;;0.90;0.22;;;16.70;75.00;;;;;;5018741;28;20080;-75
2022/07/13 03:10:23;;;;;;;1.58;0.38;;;16.70;75.30;;;;;;4996095;28;20042;-75
2022/07/13 03:12:55;;;;;;;4.13;0.52;;;16.60;75.20;;;;;;5027446;28;20132;-75
2022/07/13 03:15:22;;;;;;;5.20;0.50;;;16.60;75.10;;;;;;4999267;28;20049;-75
2022/07/13 03:17:49;;;;;;;2.35;0.35;;;16.60;75.20;;;;;;5016028;28;20052;-76
2022/07/13 03:20:17;;;;;;;3.65;0.40;;;16.60;75.60;;;;;;5013427;28;20041;-76
2022/07/13 03:22:45;;;;;;;2.15;0.43;;;16.60;76.60;;;;;;4995893;28;20054;-76
2022/07/13 03:25:12;;;;;;;1.40;0.32;;;16.50;76.00;;;;;;5016873;28;20042;-75
2022/07/13 03:27:48;;;;;;;2.22;0.30;;;16.50;76.20;;;;;;5010289;28;21028;-76
2022/07/13 03:30:15;;;;;;;0.75;0.30;;;16.50;76.50;;;;;;5010531;28;20139;-75
2022/07/13 03:32:42;;;;;;;1.13;0.40;;;16.50;76.50;;;;;;5028533;28;20050;-75
2022/07/13 03:35:10;;;;;;;3.65;0.43;;;16.50;77.00;;;;;;5015237;28;20075;-75
2022/07/13 03:37:38;;;;;;;2.40;0.40;;;16.60;78.40;;;;;;5025210;28;20439;-76
2022/07/13 03:40:07;;;;;;;5.18;0.38;;;16.60;78.00;;;;;;5015892;28;20133;-76
2022/07/13 03:42:37;;;;;;;2.25;0.30;;;16.60;77.90;;;;;;4996838;28;20046;-76
2022/07/13 03:45:06;;;;;;;6.00;0.50;;;16.60;78.10;;;;;;5013378;28;20643;-76
2022/07/13 03:47:34;;;;;;;12.30;0.77;;;16.60;78.20;;;;;;4996362;28;20125;-75
2022/07/13 03:50:02;;;;;;;5.47;0.50;;;16.70;78.10;;;;;;5015835;28;20046;-75
2022/07/13 03:52:30;;;;;;;4.80;0.52;;;16.70;78.00;;;;;;5014024;28;21865;-75
2022/07/13 03:54:57;;;;;;;1.83;0.50;;;16.70;78.00;;;;;;5026164;28;20033;-76
2022/07/13 03:57:25;;;;;;;1.98;0.82;;;16.70;78.40;;;;;;5015191;28;20505;-76
2022/07/13 03:59:52;;;;;;;4.53;0.93;;;16.80;79.20;;;;;;5011887;28;20042;-76
2022/07/13 04:02:19;;;;;;;1.83;0.60;;;16.80;79.40;;;;;;5014111;28;20049;-75
2022/07/13 04:04:47;;;;;;;3.10;0.55;;;16.90;79.20;;;;;;5013545;28;20077;-75
2022/07/13 04:07:15;;;;;;;3.20;0.57;;;16.90;79.10;;;;;;4992332;28;20107;-75
2022/07/13 04:09:43;;;;;;;2.88;0.85;;;17.00;79.30;;;;;;5010532;28;20404;-76
2022/07/13 04:12:10;;;;;;;5.63;0.60;;;17.10;79.50;;;;;;5010995;28;20119;-75
2022/07/13 04:14:37;;;;;;;2.42;0.80;;;17.10;78.70;;;;;;4997794;28;20040;-75
2022/07/13 04:17:05;;;;;;;1.60;0.40;;;17.10;77.30;;;;;;4997632;28;20127;-75
2022/07/13 04:19:32;;;;;;;1.00;0.30;;;17.20;77.90;;;;;;5013146;28;20257;-76
2022/07/13 04:21:59;;;;;;;3.33;0.40;;;17.30;77.00;;;;;;5012616;28;20042;-75
2022/07/13 04:24:26;;;;;;;2.05;0.30;;;17.30;76.70;;;;;;4992621;28;20064;-75
2022/07/13 04:26:54;;;;;;;2.80;0.30;;;17.40;76.60;;;;;;4996432;28;20132;-75
2022/07/13 04:29:22;;;;;;;1.95;0.40;;;17.40;76.70;;;;;;5026300;28;20052;-75
2022/07/13 04:31:49;;;;;;;3.33;0.60;;;17.50;77.20;;;;;;5008845;28;20292;-75
2022/07/13 04:34:17;;;;;;;4.15;0.45;;;17.60;76.70;;;;;;5012289;28;20045;-76
2022/07/13 04:36:44;;;;;;;2.30;0.30;;;17.70;75.40;;;;;;5018281;28;20056;-75
2022/07/13 04:39:12;;;;;;;0.90;0.40;;;17.80;75.40;;;;;;5015949;28;20042;-75
2022/07/13 04:41:40;;;;;;;1.88;0.30;;;17.90;74.30;;;;;;5016643;28;20054;-76
2022/07/13 04:44:07;;;;;;;2.72;0.50;;;18.00;74.10;;;;;;5003581;28;20060;-75
2022/07/13 04:46:34;;;;;;;2.47;0.30;;;18.00;73.60;;;;;;5017272;28;20685;-76
2022/07/13 04:49:02;;;;;;;3.22;0.30;;;18.10;73.50;;;;;;5015339;28;20677;-75
2022/07/13 04:51:29;;;;;;;2.83;0.20;;;18.20;73.50;;;;;;5020913;28;20594;-75
2022/07/13 04:53:57;;;;;;;2.45;0.28;;;18.30;72.90;;;;;;5018262;28;20072;-75
2022/07/13 04:56:25;;;;;;;2.97;0.30;;;18.40;73.30;;;;;;5017745;28;20044;-75
2022/07/13 04:58:53;;;;;;;2.90;0.28;;;18.40;72.70;;;;;;5003311;28;20132;-75
2022/07/13 05:01:21;;;;;;;3.25;0.70;;;18.60;72.30;;;;;;4981682;28;20044;-75
2022/07/13 05:03:57;;;;;;;2.15;0.30;;;18.70;72.00;;;;;;4970142;28;20053;-75
2022/07/13 05:06:25;;;;;;;4.90;0.35;;;18.80;71.10;;;;;;4970703;28;20111;-76
2022/07/13 05:08:53;;;;;;;0.93;0.28;;;18.90;70.60;;;;;;4969470;28;20373;-75
2022/07/13 05:11:20;;;;;;;1.50;0.20;;;19.00;69.10;;;;;;4951978;28;20049;-76
2022/07/13 05:13:47;;;;;;;0.95;0.20;;;19.20;68.70;;;;;;4961505;28;20072;-74
2022/07/13 05:16:15;;;;;;;2.20;0.20;;;19.30;67.80;;;;;;4956437;28;20134;-76
2022/07/13 05:18:43;;;;;;;1.38;0.20;;;19.50;67.40;;;;;;4963300;28;20049;-75
2022/07/13 05:21:15;;;;;;;3.13;0.28;;;19.70;67.50;;;;;;4978787;28;20045;-75
2022/07/13 05:23:43;;;;;;;2.55;0.30;;;19.90;65.50;;;;;;4978514;28;20179;-75
2022/07/13 05:26:11;;;;;;;2.25;0.47;;;20.10;66.00;;;;;;4959978;28;20511;-75
2022/07/13 05:28:39;;;;;;;2.40;0.20;;;20.30;64.70;;;;;;4959807;28;20058;-76
2022/07/13 05:31:09;;;;;;;1.10;0.20;;;20.40;63.80;;;;;;4979542;28;20459;-77
2022/07/13 05:33:36;;;;;;;0.55;0.10;;;20.60;62.70;;;;;;4982330;28;20054;-76
2022/07/13 05:36:10;;;;;;;5.15;0.30;;;20.80;61.80;;;;;;4979483;28;20107;-75
2022/07/13 05:38:37;;;;;;;0.50;0.15;;;20.90;61.10;;;;;;4985266;28;20053;-76
2022/07/13 05:41:05;;;;;;;1.50;0.20;;;21.00;61.30;;;;;;4962038;28;20045;-75
2022/07/13 05:43:32;;;;;;;0.95;0.10;;;21.20;60.80;;;;;;4966809;28;20069;-76
2022/07/13 05:46:00;;;;;;;1.83;0.25;;;21.30;60.20;;;;;;4950548;28;20060;-76
2022/07/13 05:48:28;;;;;;;1.30;0.20;;;21.50;59.50;;;;;;4967822;28;20060;-76
2022/07/13 05:50:55;;;;;;;1.38;0.10;;;21.60;59.00;;;;;;4964721;28;20854;-75
2022/07/13 05:53:42;;;;;;;1.70;0.10;;;21.70;58.50;;;;;;4981795;28;20045;-75
2022/07/13 05:56:10;;;;;;;1.10;0.20;;;21.80;58.50;;;;;;4994717;28;20046;-77
2022/07/13 05:58:37;;;;;;;0.70;0.43;;;22.00;58.70;;;;;;4968087;28;20512;-77
2022/07/13 06:01:04;;;;;;;1.83;0.20;;;22.10;58.50;;;;;;4978283;28;20052;-74
2022/07/13 06:03:31;;;;;;;2.45;0.10;;;22.20;58.50;;;;;;4983093;28;20183;-75
2022/07/13 06:05:58;;;;;;;0.50;0.17;;;22.30;58.40;;;;;;4960630;28;20057;-76
2022/07/13 06:08:25;;;;;;;2.47;0.20;;;22.40;57.80;;;;;;4979561;28;20046;-75
2022/07/13 06:10:52;;;;;;;1.75;0.20;;;22.40;56.60;;;;;;4980783;28;20065;-75
2022/07/13 06:13:24;;;;;;;0.95;0.13;;;22.70;56.80;;;;;;4997620;28;20052;-75
2022/07/13 06:15:51;;;;;;;0.70;0.20;;;22.80;56.60;;;;;;4980783;28;22357;-75
2022/07/13 06:18:19;;;;;;;1.80;0.20;;;22.90;57.80;;;;;;4979380;28;20754;-75
2022/07/13 06:20:46;;;;;;;1.33;0.20;;;23.00;55.60;;;;;;4981881;28;20197;-75
2022/07/13 06:23:15;;;;;;;0.75;0.20;;;23.20;55.70;;;;;;4969986;28;20516;-75
2022/07/13 06:25:45;;;;;;;1.67;0.13;;;23.10;55.00;;;;;;4977139;28;20049;-75
2022/07/13 06:28:13;;;;;;;0.52;0.20;;;23.20;54.80;;;;;;4955350;28;20144;-77
2022/07/13 06:30:40;;;;;;;1.15;0.22;;;23.30;54.90;;;;;;4978340;28;20046;-76
2022/07/13 06:33:07;;;;;;;4.20;0.20;;;23.30;54.30;;;;;;4979127;28;20048;-76
2022/07/13 06:35:34;;;;;;;2.05;0.20;;;23.50;53.90;;;;;;4977456;28;22159;-77
2022/07/13 06:38:01;;;;;;;2.22;0.10;;;23.60;55.50;;;;;;4981980;28;20053;-77
2022/07/13 06:40:28;;;;;;;1.15;0.10;;;23.70;54.20;;;;;;4965574;28;20054;-75
2022/07/13 06:42:55;;;;;;;1.73;0.17;;;23.70;54.20;;;;;;4981556;28;20138;-75
2022/07/13 06:45:23;;;;;;;0.70;0.10;;;23.90;54.80;;;;;;4977229;28;20061;-74
2022/07/13 06:47:51;;;;;;;0.52;0.20;;;24.00;54.20;;;;;;4967488;28;20781;-75
2022/07/13 06:50:19;;;;;;;0.40;0.10;;;24.00;54.00;;;;;;4984247;28;22466;-76
2022/07/13 06:52:47;;;;;;;5.28;0.20;;;24.10;54.40;;;;;;4976649;28;20568;-77
2022/07/13 06:55:15;;;;;;;1.35;0.13;;;24.20;54.20;;;;;;4974673;28;20052;-75
2022/07/13 06:57:42;;;;;;;2.55;0.20;;;24.10;53.20;;;;;;4978173;28;21298;-76
2022/07/13 07:00:10;;;;;;;1.75;0.17;;;24.10;54.20;;;;;;4967503;28;20049;-75
2022/07/13 07:02:37;;;;;;;0.88;0.10;;;24.30;54.00;;;;;;4955392;28;20151;-77
2022/07/13 07:05:11;;;;;;;0.77;0.10;;;24.30;53.20;;;;;;4955991;28;20150;-77
2022/07/13 07:07:39;;;;;;;3.03;0.20;;;24.40;53.10;;;;;;4992101;28;20163;-75
2022/07/13 07:10:10;;;;;;;2.00;1.20;;;24.30;53.30;;;;;;4978340;28;20041;-76
2022/07/13 07:12:38;;;;;;;1.07;0.47;;;24.40;53.90;;;;;;4993654;28;20482;-76
2022/07/13 07:15:06;;;;;;;1.23;0.10;;;24.40;53.20;;;;;;4982041;28;20676;-75
2022/07/13 07:17:42;;;;;;;2.22;0.10;;;24.50;53.20;;;;;;4976282;28;22678;-77
2022/07/13 07:20:09;;;;;;;2.30;0.10;;;24.50;53.10;;;;;;5004828;28;20057;-77
2022/07/13 07:22:36;;;;;;;1.35;0.10;;;24.40;53.40;;;;;;5011918;28;20137;-77
2022/07/13 07:25:04;;;;;;;1.52;0.20;;;24.50;53.60;;;;;;4983739;28;20411;-76
2022/07/13 07:27:31;;;;;;;1.38;0.30;;;24.60;52.80;;;;;;4985727;28;20045;-77
2022/07/13 07:29:58;;;;;;;0.75;0.10;;;24.50;53.10;;;;;;4985461;28;20052;-77
2022/07/13 07:32:26;;;;;;;0.82;0.15;;;24.50;53.30;;;;;;4955819;28;22392;-76
2022/07/13 07:34:54;;;;;;;1.55;0.20;;;24.80;52.90;;;;;;4969406;28;20824;-77
2022/07/13 07:37:22;;;;;;;0.68;0.10;;;24.90;52.50;;;;;;4966323;28;20088;-76
2022/07/13 07:39:49;;;;;;;2.15;0.20;;;24.90;52.80;;;;;;5000701;28;22117;-76
2022/07/13 07:42:16;;;;;;;0.65;0.10;;;25.00;52.90;;;;;;4984082;28;20870;-77
2022/07/13 07:44:44;;;;;;;0.82;0.20;;;25.00;52.50;;;;;;4970902;28;20080;-77
2022/07/13 07:47:12;;;;;;;1.23;0.30;;;25.10;52.60;;;;;;4986294;28;20068;-77
2022/07/13 07:49:39;;;;;;;3.45;0.20;;;25.20;52.30;;;;;;4951777;28;20072;-77
2022/07/13 07:52:07;;;;;;;1.08;0.10;;;25.20;52.80;;;;;;4985814;28;20781;-77
2022/07/13 07:54:54;;;;;;;2.17;0.30;;;25.40;52.60;;;;;;4975644;28;20083;-77
2022/07/13 07:57:27;;;;;;;2.75;0.28;;;25.60;52.10;;;;;;4984211;28;20053;-77
2022/07/13 07:59:54;;;;;;;1.58;0.30;;;25.60;52.10;;;;;;4972242;28;20119;-77
2022/07/13 08:02:21;;;;;;;0.30;0.10;;;25.80;52.40;;;;;;4982039;28;20120;-77
2022/07/13 08:04:49;;;;;;;1.42;0.20;;;25.70;51.60;;;;;;4982458;28;20916;-76
2022/07/13 08:07:16;;;;;;;0.30;0.10;;;25.50;51.90;;;;;;4985799;28;20132;-77
2022/07/13 08:09:43;;;;;;;0.50;0.10;;;25.60;51.90;;;;;;4980833;28;20045;-77
2022/07/13 08:12:11;;;;;;;1.98;0.20;;;25.80;51.80;;;;;;4981592;28;20045;-78
2022/07/13 08:14:38;;;;;;;2.05;0.60;;;25.60;52.10;;;;;;4983566;28;20198;-78
2022/07/13 08:17:06;;;;;;;2.78;0.50;;;25.70;51.80;;;;;;4972452;28;20033;-77
2022/07/13 08:19:33;;;;;;;1.17;0.30;;;25.80;51.80;;;;;;4986126;28;20045;-77
2022/07/13 08:22:07;;;;;;;1.15;0.10;;;25.70;51.20;;;;;;4983221;28;20093;-77
2022/07/13 08:24:34;;;;;;;0.40;0.10;;;25.60;51.70;;;;;;4983510;28;20427;-77
2022/07/13 08:27:01;;;;;;;2.05;0.25;;;25.50;51.80;;;;;;4980277;28;20041;-76
2022/07/13 08:29:29;;;;;;;1.40;0.10;;;25.80;52.10;;;;;;4981212;28;20045;-77
2022/07/13 08:31:56;;;;;;;3.78;0.20;;;25.90;52.00;;;;;;5006187;28;20045;-76
2022/07/13 08:39:56;;;;;;;4.43;0.40;;;25.90;51.10;;;;;;5019100;28;20045;-77
2022/07/13 08:42:24;;;;;;;5.35;0.35;;;25.90;51.60;;;;;;5034298;28;20951;-77
2022/07/13 08:44:51;;;;;;;3.78;0.30;;;25.80;51.60;;;;;;5018515;28;20057;-77
2022/07/13 08:47:19;;;;;;;3.60;0.20;;;25.90;51.20;;;;;;5022332;28;20057;-76
2022/07/13 08:49:48;;;;;;;2.08;0.20;;;26.00;51.00;;;;;;4993017;28;20053;-77
2022/07/13 08:52:16;;;;;;;7.85;0.45;;;25.80;50.90;;;;;;5017017;28;20053;-76
2022/07/13 08:54:43;;;;;;;5.40;0.30;;;25.70;50.60;;;;;;5015468;28;20042;-76
2022/07/13 08:57:10;;;;;;;1.77;0.25;;;25.90;51.20;;;;;;5035498;28;20547;-77
2022/07/13 08:59:37;;;;;;;17.85;0.70;;;26.10;50.70;;;;;;5018938;28;20044;-76
2022/07/13 09:02:05;;;;;;;1.70;0.17;;;26.00;49.90;;;;;;5006507;28;20049;-78
2022/07/13 09:04:32;;;;;;;2.63;0.20;;;25.90;50.10;;;;;;4966606;28;20098;-78
2022/07/13 09:07:00;;;;;;;1.98;0.20;;;26.10;50.70;;;;;;4964950;28;20546;-77
2022/07/13 09:09:31;;;;;;;24.58;0.75;;;26.10;49.90;;;;;;4982266;28;20052;-78
2022/07/13 09:12:21;;;;;;;4.30;0.67;;;26.30;50.20;;;;;;4974714;28;20132;-77
2022/07/13 09:14:53;;;;;;;0.98;0.20;;;26.40;49.70;;;;;;4983098;28;20049;-77
2022/07/13 09:17:33;;;;;;;10.02;1.48;;;26.20;49.70;;;;;;4979921;28;20065;-76
2022/07/13 09:20:17;;;;;;;14.25;0.63;;;26.10;49.60;;;;;;4967323;28;20049;-76
2022/07/13 09:22:53;;;;;;;2.25;0.20;;;26.20;49.20;;;;;;4986274;28;20088;-76
2022/07/13 09:25:32;;;;;;;5.90;0.20;;;26.30;48.80;;;;;;4982885;28;20050;-76
2022/07/13 09:28:08;;;;;;;3.90;0.20;;;26.40;48.80;;;;;;4971372;28;20053;-76
2022/07/13 09:30:40;;;;;;;14.90;1.23;;;26.30;49.20;;;;;;4974106;28;20057;-77
2022/07/13 09:33:07;;;;;;;6.85;0.85;;;26.50;48.60;;;;;;4986256;28;20052;-77
2022/07/13 09:35:46;;;;;;;3.35;0.22;;;26.60;48.10;;;;;;4993425;28;20045;-77
2022/07/13 09:38:37;;;;;;;0.82;0.20;;;26.60;47.80;;;;;;4971495;28;20103;-78
2022/07/13 09:41:24;;;;;;;3.40;0.10;;;26.50;48.10;;;;;;4999394;28;20045;-77
2022/07/13 09:46:55;;;;;;;2.30;0.25;;;26.80;48.70;;;;;;4984387;28;20132;-77
2022/07/13 09:49:44;;;;;;;2.58;0.38;;;27.00;49.00;;;;;;4979857;28;20094;-77
2022/07/13 09:52:19;;;;;;;6.63;0.68;;;26.70;47.30;;;;;;4963796;28;20675;-76
2022/07/13 09:54:51;;;;;;;11.85;0.60;;;26.80;48.00;;;;;;4973482;28;21308;-78
2022/07/13 09:57:22;;;;;;;1.85;0.20;;;26.70;48.60;;;;;;4987120;28;20049;-77
2022/07/13 09:59:50;;;;;;;2.92;0.20;;;26.60;47.30;;;;;;4983805;28;20376;-77
2022/07/13 10:02:17;;;;;;;3.88;0.52;;;26.60;47.60;;;;;;4970090;28;20724;-76
2022/07/13 10:04:47;;;;;;;1.55;0.10;;;26.60;47.90;;;;;;4981324;28;20136;-76
2022/07/13 10:07:17;;;;;;;3.08;0.30;;;26.60;47.80;;;;;;4972464;28;20064;-77
2022/07/13 10:09:45;;;;;;;2.28;0.20;;;26.80;49.00;;;;;;4987453;28;20151;-77
2022/07/13 10:12:13;;;;;;;1.05;0.20;;;26.80;47.70;;;;;;4981307;28;20052;-77
2022/07/13 10:14:41;;;;;;;4.20;0.20;;;26.80;48.60;;;;;;4981848;28;21075;-77
2022/07/13 10:17:14;;;;;;;2.25;0.20;;;26.80;48.50;;;;;;4997508;28;20046;-77
2022/07/13 10:19:51;;;;;;;2.25;0.20;;;26.60;48.50;;;;;;4969832;28;20061;-77
2022/07/13 10:22:21;;;;;;;9.18;0.45;;;26.80;49.10;;;;;;4968068;28;20617;-78
2022/07/13 10:24:57;;;;;;;1.00;0.10;;;26.90;48.50;;;;;;4970565;28;20053;-78
2022/07/13 10:27:30;;;;;;;2.95;0.32;;;26.90;48.40;;;;;;4968024;28;20160;-77
2022/07/13 10:30:02;;;;;;;3.40;0.30;;;26.90;48.10;;;;;;4985401;28;20060;-77
2022/07/13 10:32:31;;;;;;;3.17;0.75;;;26.90;47.60;;;;;;4982488;28;20060;-77
2022/07/13 10:35:01;;;;;;;2.25;0.10;;;26.80;46.90;;;;;;4987095;28;20812;-78
2022/07/13 10:37:49;;;;;;;2.92;0.28;;;27.00;46.50;;;;;;4963350;28;20724;-77
2022/07/13 10:40:16;;;;;;;0.35;0.20;;;26.90;47.20;;;;;;4978665;28;20052;-76
2022/07/13 10:42:57;;;;;;;0.90;0.20;;;27.00;47.00;;;;;;4979421;28;20049;-76
2022/07/13 10:48:04;;;;;;;1.25;0.17;;;27.00;47.70;;;;;;4982971;28;20061;-77
2022/07/13 10:50:44;;;;;;;18.92;0.95;;;27.00;45.40;;;;;;4954492;28;20057;-76
2022/07/13 10:53:12;;;;;;;26.35;1.25;;;27.00;45.80;;;;;;4981320;28;20104;-77
2022/07/13 10:55:50;;;;;;;1.90;0.20;;;27.10;45.90;;;;;;4971354;28;20646;-76
2022/07/13 10:58:40;;;;;;;5.22;1.08;;;27.30;46.80;;;;;;4967896;28;20477;-76
2022/07/13 11:01:33;;;;;;;6.45;0.40;;;27.10;46.00;;;;;;4982423;28;22086;-78
2022/07/13 11:04:00;;;;;;;24.15;1.10;;;27.20;46.50;;;;;;4973544;28;20095;-78
2022/07/13 11:06:29;;;;;;;3.75;0.30;;;27.40;47.00;;;;;;4965861;28;20512;-76
2022/07/13 11:09:09;;;;;;;1.02;0.15;;;27.30;46.70;;;;;;4996573;28;21321;-76
2022/07/13 11:11:45;;;;;;;2.13;0.30;;;27.30;48.00;;;;;;4963336;28;20151;-78
2022/07/13 11:14:40;;;;;;;0.65;0.20;;;27.30;47.70;;;;;;4982766;28;20535;-76
2022/07/13 11:17:15;;;;;;;2.47;0.25;;;27.40;46.90;;;;;;4993298;28;20079;-78
2022/07/13 11:19:51;;;;;;;3.03;0.25;;;27.30;46.10;;;;;;4962374;28;20049;-77
2022/07/13 11:22:18;;;;;;;1.52;0.10;;;27.20;45.50;;;;;;4953171;28;20045;-77
2022/07/13 11:27:46;;;;;;;2.45;0.40;;;27.40;45.80;;;;;;4979947;28;20061;-77
2022/07/13 11:30:15;;;;;;;2.53;0.20;;;27.60;45.70;;;;;;4980890;28;20090;-77
2022/07/13 11:32:43;;;;;;;16.25;0.65;;;27.70;44.80;;;;;;4978696;28;20049;-76
2022/07/13 11:35:10;;;;;;;6.43;0.30;;;27.60;44.50;;;;;;4993740;28;21982;-77
2022/07/13 11:37:42;;;;;;;0.40;0.15;;;27.70;45.30;;;;;;4979831;28;20045;-77
2022/07/13 11:40:09;;;;;;;;;;;27.70;44.10;;;;;;4980310;28;22117;-77
2022/07/13 11:42:36;;;;;;;2.97;0.10;;;27.70;43.30;;;;;;4981616;28;19975;-77
2022/07/13 11:45:04;;;;;;;3.03;0.30;;;27.70;43.10;;;;;;4983780;28;20128;-75
2022/07/13 11:47:32;;;;;;;1.88;0.40;;;27.80;43.90;;;;;;4975989;28;20556;-76
2022/07/13 11:49:59;;;;;;;0.70;0.30;;;27.60;43.40;;;;;;4961014;28;20165;-77
2022/07/13 11:52:28;;;;;;;2.30;0.30;;;27.60;44.00;;;;;;4979137;28;20777;-77
2022/07/13 11:55:00;;;;;;;0.88;0.10;;;27.60;44.30;;;;;;4968786;28;20461;-77
2022/07/13 11:57:28;;;;;;;2.17;0.20;;;27.70;43.50;;;;;;4982540;28;20045;-78
2022/07/13 12:00:07;;;;;;;3.33;0.10;;;27.70;43.00;;;;;;4984135;28;20135;-76
2022/07/13 12:02:37;;;;;;;;;;;27.60;43.00;;;;;;4969645;28;20042;-77
2022/07/13 12:05:05;;;;;;;3.38;0.20;;;27.60;42.80;;;;;;4982207;28;20363;-74
2022/07/13 12:07:38;;;;;;;1.52;0.30;;;27.80;43.10;;;;;;4980868;28;21950;-76
2022/07/13 12:10:07;;;;;;;1.83;0.40;;;27.80;42.70;;;;;;4978811;28;20049;-76
2022/07/13 12:12:36;;;;;;;1.88;0.10;;;27.70;42.80;;;;;;4977225;28;20782;-75
2022/07/13 12:15:05;;;;;;;0.40;0.20;;;27.90;43.10;;;;;;4983392;28;20045;-76
2022/07/13 12:17:42;;;;;;;0.32;0.10;;;28.00;42.90;;;;;;4960501;28;20057;-75
2022/07/13 12:20:17;;;;;;;3.47;0.73;;;27.90;42.80;;;;;;4992797;28;20194;-75
2022/07/13 12:22:58;;;;;;;0.65;0.20;;;28.00;43.40;;;;;;4979442;28;20049;-75
2022/07/13 12:25:31;;;;;;;2.13;0.20;;;28.00;43.30;;;;;;4976374;28;21042;-75
2022/07/13 12:28:00;;;;;;;4.28;0.10;;;28.00;43.20;;;;;;4979775;28;20054;-76
2022/07/13 12:30:28;;;;;;;1.00;0.20;;;28.10;42.80;;;;;;4972670;28;22385;-75
2022/07/13 12:32:56;;;;;;;4.25;0.30;;;28.20;42.70;;;;;;4978312;28;22014;-76
2022/07/13 12:35:29;;;;;;;6.00;0.52;;;28.30;43.30;;;;;;4967700;28;20079;-77
2022/07/13 12:38:01;;;;;;;3.70;0.10;;;28.20;42.80;;;;;;4979889;28;20173;-76
2022/07/13 12:40:40;;;;;;;1.95;0.10;;;28.10;42.80;;;;;;4977527;28;20489;-77
2022/07/13 12:43:26;;;;;;;4.50;0.10;;;28.00;42.10;;;;;;4967442;28;20132;-76
2022/07/13 12:45:59;;;;;;;1.70;0.15;;;28.10;42.30;;;;;;4982031;28;20057;-76
2022/07/13 12:48:28;;;;;;;1.15;0.10;;;28.00;42.00;;;;;;4962098;28;20662;-76
2022/07/13 12:51:06;;;;;;;3.05;0.20;;;28.20;42.40;;;;;;4978768;28;20061;-77
2022/07/13 12:53:53;;;;;;;8.95;0.47;;;28.20;41.20;;;;;;4967049;28;20058;-76
2022/07/13 12:56:26;;;;;;;3.03;0.10;;;28.30;41.50;;;;;;4981545;28;20076;-75
2022/07/13 12:59:05;;;;;;;8.10;0.35;;;28.40;41.00;;;;;;4984654;28;20297;-76
2022/07/13 13:01:35;;;;;;;14.18;0.30;;;28.40;41.60;;;;;;4964392;28;20045;-75
2022/07/13 13:04:04;;;;;;;2.92;0.52;;;28.50;41.80;;;;;;4980467;28;20045;-77
2022/07/13 13:06:37;;;;;;;1.65;0.10;;;28.40;40.00;;;;;;4966122;28;20424;-76
2022/07/13 13:09:05;;;;;;;3.60;0.47;;;28.40;40.60;;;;;;4970159;28;20742;-76
2022/07/13 13:11:33;;;;;;;1.27;0.10;;;28.40;41.00;;;;;;4971048;28;22747;-75
2022/07/13 13:14:01;;;;;;;1.45;0.10;;;28.30;41.10;;;;;;4983503;28;20057;-76